Terminal Aerodrome Forecast
Issued by NWS Buffalo, NY

Home | Current Version | Previous Version | Text Only | Print | Product List | Glossary On
Versions: 1 2 3 4 5 6 7 8 9 10 11 12 13 14 15 16 17 18 19 20 21 22 23 24 25 26
000
FTUS41 KBUF 290200 AAA
TAFROC
TAF AMD
KROC 290259Z 2903/2924 29007KT P6SM SCT050 BKN080
     FM290600 30009KT P6SM BKN050
     FM291000 30006KT P6SM SCT045
     FM291300 30006KT P6SM BKN045
     FM291700 30006KT P6SM SCT045
     FM292000 27006KT P6SM BKN045
     FM292200 26006KT P6SM BKN060=

USA.gov is the U.S. government's official web portal to all federal, state and local government web resources and services.